Zellwood, FL (32798)

2:17 AM EDT on September 04, 2015 (GMT -0400)
Rock Springs Ridge | | Change Station
CLOSE
Current Station
Personal Weather Station
Location: Apopka, FL
Elevation: 92 ft
Nearby Weather Stations

Elev 92 ft 28.75 °N, 81.54 °W | Updated 8 seconds ago

Clear
Clear
74.1 °F
Feels Like 72 °F
N
0.0
Wind Variable Wind from West
Gusts 0.0 mph

Today
High -- | Low -- °F
--% Chance of Precip.
Yesterday
High -- | Low -- °F
Precip. -- in
7:05 AM 7:44 PM
Waning Gibbous, 63% visible
Pressure 29.94 in
Visibility 9.0 miles
Clouds Clear
Heat Index 72 °F
Dew Point 71 °F
Humidity 91%
Rainfall 0.00 in
Snow Depth Not available.
UV 0 out of 12
Pollen 7.00 out of 12
Air Quality Not available.
Flu Activity Not available.
METAR KLEE 040553Z AUTO 00000KT 9SM CLR 25/24 A2994 RMK AO2 SLP138 T02500239 10261 20244 56008
Pressure 29.94 in
Visibility 9.0 miles
Clouds Clear
Heat Index 72 °F
Dew Point 71 °F
Humidity 91%
Rainfall 0.00 in
Snow Depth Not available.
UV 0 out of 12
Pollen 7.00 out of 12
Air Quality Not available.
Flu Activity Not available.
METAR KLEE 040553Z AUTO 00000KT 9SM CLR 25/24 A2994 RMK AO2 SLP138 T02500239 10261 20244 56008

10-Day Weather Forecast

×

Almanac

Astronomy

Sep. 04, 2015 Rise Set
Actual Time
Civil Twilight
Nautical Twilight
Astronomical Twilight
Moon
Length of Visible Light
Length of Day
Tomorrow will be .
, % of the Moon is Illuminated

Today's Extremes

State Highs State Lows

Community

WunderPhotos

Upload Photos

1,852,132 photos uploaded!

WunderBlogs® & News

Nearby

Air Quality

  Air Quality AQ Index Pollutant
Not available.

Snow Depth

Station Depth Elevation

Earthquake Activity

City Distance Mag. Time & Date
Minimum magnitude displayed is 2.5.

Coastal Water Temperatures

Place Temperature

Stations

Nearby Weather Stations

Station Location Temp. Windchill Dew Point Humidity Wind Precip. Elev Updated Type